sensor_id;sensor_type;location;lat;lon;timestamp;pressure;altitude;pressure_sealevel;temperature;humidity
27429;BME280;14881;48.092;11.574;2023-04-07T00:01:03;95440.22;;;2.83;100.00
27429;BME280;14881;48.092;11.574;2023-04-07T00:03:31;95444.22;;;2.80;100.00
27429;BME280;14881;48.092;11.574;2023-04-07T00:05:59;95435.59;;;2.78;100.00
27429;BME280;14881;48.092;11.574;2023-04-07T00:08:28;95440.13;;;2.78;100.00
27429;BME280;14881;48.092;11.574;2023-04-07T00:10:56;95446.06;;;2.80;100.00
27429;BME280;14881;48.092;11.574;2023-04-07T00:13:23;95447.63;;;2.76;100.00
27429;BME280;14881;48.092;11.574;2023-04-07T00:15:51;95446.59;;;2.77;100.00
27429;BME280;14881;48.092;11.574;2023-04-07T00:18:19;95448.25;;;2.66;100.00
27429;BME280;14881;48.092;11.574;2023-04-07T00:20:47;95442.91;;;2.66;100.00
27429;BME280;14881;48.092;11.574;2023-04-07T00:23:14;95438.50;;;2.60;100.00
27429;BME280;14881;48.092;11.574;2023-04-07T00:25:43;95438.75;;;2.59;100.00
27429;BME280;14881;48.092;11.574;2023-04-07T00:28:11;95432.34;;;2.60;100.00
27429;BME280;14881;48.092;11.574;2023-04-07T00:30:39;95432.16;;;2.66;100.00
27429;BME280;14881;48.092;11.574;2023-04-07T00:33:07;95434.38;;;2.69;100.00
27429;BME280;14881;48.092;11.574;2023-04-07T00:35:35;95435.19;;;2.70;100.00
27429;BME280;14881;48.092;11.574;2023-04-07T00:38:03;95429.41;;;2.78;100.00
27429;BME280;14881;48.092;11.574;2023-04-07T00:40:30;95431.72;;;2.86;100.00
27429;BME280;14881;48.092;11.574;2023-04-07T00:43:00;95436.34;;;2.91;100.00
27429;BME280;14881;48.092;11.574;2023-04-07T00:45:27;95430.56;;;2.99;100.00
27429;BME280;14881;48.092;11.574;2023-04-07T00:47:55;95424.47;;;3.03;100.00
27429;BME280;14881;48.092;11.574;2023-04-07T00:50:24;95409.56;;;3.12;100.00
27429;BME280;14881;48.092;11.574;2023-04-07T00:52:52;95424.13;;;3.17;100.00
27429;BME280;14881;48.092;11.574;2023-04-07T00:55:22;95409.75;;;3.23;100.00
27429;BME280;14881;48.092;11.574;2023-04-07T00:57:50;95421.28;;;3.23;100.00
27429;BME280;14881;48.092;11.574;2023-04-07T01:00:19;95417.56;;;3.24;100.00
27429;BME280;14881;48.092;11.574;2023-04-07T01:02:54;95407.88;;;3.23;100.00
27429;BME280;14881;48.092;11.574;2023-04-07T01:05:30;95411.94;;;3.26;100.00
27429;BME280;14881;48.092;11.574;2023-04-07T01:08:07;95409.06;;;3.32;100.00
27429;BME280;14881;48.092;11.574;2023-04-07T01:10:42;95408.19;;;3.27;100.00
27429;BME280;14881;48.092;11.574;2023-04-07T01:13:21;95409.75;;;3.23;100.00
27429;BME280;14881;48.092;11.574;2023-04-07T01:15:54;95406.41;;;3.15;100.00
27429;BME280;14881;48.092;11.574;2023-04-07T01:18:25;95399.94;;;3.11;100.00
27429;BME280;14881;48.092;11.574;2023-04-07T01:20:59;95401.63;;;3.01;100.00
27429;BME280;14881;48.092;11.574;2023-04-07T01:26:19;95399.91;;;2.95;100.00
27429;BME280;14881;48.092;11.574;2023-04-07T01:29:03;95397.50;;;2.93;100.00
27429;BME280;14881;48.092;11.574;2023-04-07T01:31:36;95398.56;;;2.92;100.00
27429;BME280;14881;48.092;11.574;2023-04-07T01:34:08;95397.50;;;2.93;100.00
27429;BME280;14881;48.092;11.574;2023-04-07T01:36:37;95388.69;;;2.98;100.00
27429;BME280;14881;48.092;11.574;2023-04-07T01:39:05;95396.81;;;3.03;100.00
27429;BME280;14881;48.092;11.574;2023-04-07T01:41:34;95404.97;;;3.08;100.00
27429;BME280;14881;48.092;11.574;2023-04-07T01:44:05;95398.84;;;3.12;100.00
27429;BME280;14881;48.092;11.574;2023-04-07T01:46:36;95396.66;;;3.26;100.00
27429;BME280;14881;48.092;11.574;2023-04-07T01:49:05;95398.72;;;3.41;100.00
27429;BME280;14881;48.092;11.574;2023-04-07T01:51:34;95391.28;;;3.48;100.00
27429;BME280;14881;48.092;11.574;2023-04-07T01:54:03;95390.00;;;3.50;100.00
27429;BME280;14881;48.092;11.574;2023-04-07T01:56:32;95385.75;;;3.55;100.00
27429;BME280;14881;48.092;11.574;2023-04-07T01:58:59;95379.66;;;3.59;100.00
27429;BME280;14881;48.092;11.574;2023-04-07T02:01:28;95385.84;;;3.60;100.00
27429;BME280;14881;48.092;11.574;2023-04-07T02:04:04;95375.47;;;3.68;100.00
27429;BME280;14881;48.092;11.574;2023-04-07T02:06:36;95372.03;;;3.73;100.00
27429;BME280;14881;48.092;11.574;2023-04-07T02:09:09;95377.03;;;3.86;100.00
27429;BME280;14881;48.092;11.574;2023-04-07T02:11:39;95374.81;;;4.05;100.00
27429;BME280;14881;48.092;11.574;2023-04-07T02:14:09;95372.03;;;4.22;100.00
27429;BME280;14881;48.092;11.574;2023-04-07T02:16:38;95384.03;;;4.36;100.00
27429;BME280;14881;48.092;11.574;2023-04-07T02:19:09;95368.94;;;4.62;100.00
27429;BME280;14881;48.092;11.574;2023-04-07T02:21:38;95368.47;;;4.70;100.00
27429;BME280;14881;48.092;11.574;2023-04-07T02:24:07;95366.94;;;4.79;100.00
27429;BME280;14881;48.092;11.574;2023-04-07T02:26:35;95362.38;;;4.79;100.00
27429;BME280;14881;48.092;11.574;2023-04-07T02:29:03;95368.88;;;4.83;100.00
27429;BME280;14881;48.092;11.574;2023-04-07T02:31:31;95368.38;;;4.92;100.00
27429;BME280;14881;48.092;11.574;2023-04-07T02:33:59;95366.84;;;5.01;100.00
27429;BME280;14881;48.092;11.574;2023-04-07T02:36:28;95371.97;;;5.02;100.00
27429;BME280;14881;48.092;11.574;2023-04-07T02:38:57;95376.56;;;5.02;100.00
27429;BME280;14881;48.092;11.574;2023-04-07T02:41:25;95377.56;;;4.96;100.00
27429;BME280;14881;48.092;11.574;2023-04-07T02:43:52;95373.81;;;4.97;100.00
27429;BME280;14881;48.092;11.574;2023-04-07T02:46:20;95381.09;;;4.96;100.00
27429;BME280;14881;48.092;11.574;2023-04-07T02:48:48;95381.84;;;4.92;100.00
27429;BME280;14881;48.092;11.574;2023-04-07T02:51:17;95382.91;;;4.90;100.00
27429;BME280;14881;48.092;11.574;2023-04-07T02:53:46;95372.16;;;4.90;100.00
27429;BME280;14881;48.092;11.574;2023-04-07T02:56:14;95384.22;;;4.88;100.00
27429;BME280;14881;48.092;11.574;2023-04-07T02:58:42;95380.47;;;4.84;100.00
27429;BME280;14881;48.092;11.574;2023-04-07T03:01:09;95373.19;;;4.84;100.00
27429;BME280;14881;48.092;11.574;2023-04-07T03:03:38;95379.34;;;4.80;100.00
27429;BME280;14881;48.092;11.574;2023-04-07T03:06:07;95381.72;;;4.76;100.00
27429;BME280;14881;48.092;11.574;2023-04-07T03:08:35;95376.59;;;4.75;100.00
27429;BME280;14881;48.092;11.574;2023-04-07T03:11:04;95384.59;;;4.65;100.00
27429;BME280;14881;48.092;11.574;2023-04-07T03:13:32;95379.16;;;4.60;100.00
27429;BME280;14881;48.092;11.574;2023-04-07T03:16:00;95379.41;;;4.58;100.00
27429;BME280;14881;48.092;11.574;2023-04-07T03:18:27;95375.34;;;4.55;100.00
27429;BME280;14881;48.092;11.574;2023-04-07T03:20:55;95374.22;;;4.51;100.00
27429;BME280;14881;48.092;11.574;2023-04-07T03:23:32;95371.19;;;4.43;100.00
27429;BME280;14881;48.092;11.574;2023-04-07T03:26:00;95369.31;;;4.43;100.00
27429;BME280;14881;48.092;11.574;2023-04-07T03:28:29;95365.25;;;4.41;100.00
27429;BME280;14881;48.092;11.574;2023-04-07T03:30:57;95373.22;;;4.31;100.00
27429;BME280;14881;48.092;11.574;2023-04-07T03:33:25;95370.22;;;4.27;100.00
27429;BME280;14881;48.092;11.574;2023-04-07T03:35:52;95373.09;;;4.20;100.00
27429;BME280;14881;48.092;11.574;2023-04-07T03:38:21;95362.03;;;4.17;100.00
27429;BME280;14881;48.092;11.574;2023-04-07T03:40:49;95367.06;;;4.08;100.00
27429;BME280;14881;48.092;11.574;2023-04-07T03:43:16;95362.19;;;4.05;100.00
27429;BME280;14881;48.092;11.574;2023-04-07T03:45:46;95373.75;;;4.06;100.00
27429;BME280;14881;48.092;11.574;2023-04-07T03:48:13;95363.81;;;4.06;100.00
27429;BME280;14881;48.092;11.574;2023-04-07T03:50:41;95359.69;;;3.99;100.00
27429;BME280;14881;48.092;11.574;2023-04-07T03:53:09;95365.88;;;3.99;100.00
27429;BME280;14881;48.092;11.574;2023-04-07T03:55:37;95362.13;;;4.00;100.00
27429;BME280;14881;48.092;11.574;2023-04-07T03:58:04;95360.41;;;3.89;100.00
27429;BME280;14881;48.092;11.574;2023-04-07T04:00:32;95363.84;;;3.84;100.00
27429;BME280;14881;48.092;11.574;2023-04-07T04:03:02;95359.47;;;3.78;100.00
27429;BME280;14881;48.092;11.574;2023-04-07T04:05:29;95352.00;;;3.80;100.00
27429;BME280;14881;48.092;11.574;2023-04-07T04:07:57;95361.28;;;3.73;100.00
27429;BME280;14881;48.092;11.574;2023-04-07T04:10:25;95359.84;;;3.65;100.00
27429;BME280;14881;48.092;11.574;2023-04-07T04:12:52;95358.53;;;3.68;100.00
27429;BME280;14881;48.092;11.574;2023-04-07T04:15:21;95351.53;;;3.67;100.00
27429;BME280;14881;48.092;11.574;2023-04-07T04:17:48;95357.97;;;3.66;100.00
27429;BME280;14881;48.092;11.574;2023-04-07T04:20:18;95351.78;;;3.65;100.00
27429;BME280;14881;48.092;11.574;2023-04-07T04:22:47;95343.97;;;3.64;100.00
27429;BME280;14881;48.092;11.574;2023-04-07T04:25:15;95346.66;;;3.64;100.00
27429;BME280;14881;48.092;11.574;2023-04-07T04:27:43;95345.06;;;3.63;100.00
27429;BME280;14881;48.092;11.574;2023-04-07T04:30:11;95346.84;;;3.57;100.00
27429;BME280;14881;48.092;11.574;2023-04-07T04:32:39;95348.41;;;3.53;100.00
27429;BME280;14881;48.092;11.574;2023-04-07T04:35:07;95349.47;;;3.52;100.00
27429;BME280;14881;48.092;11.574;2023-04-07T04:37:36;95354.09;;;3.57;100.00
27429;BME280;14881;48.092;11.574;2023-04-07T04:40:05;95351.16;;;3.58;100.00
27429;BME280;14881;48.092;11.574;2023-04-07T04:42:35;95344.97;;;3.58;100.00
27429;BME280;14881;48.092;11.574;2023-04-07T04:45:03;95343.94;;;3.59;100.00
27429;BME280;14881;48.092;11.574;2023-04-07T04:47:34;95348.00;;;3.61;100.00
27429;BME280;14881;48.092;11.574;2023-04-07T04:50:04;95346.66;;;3.64;100.00
27429;BME280;14881;48.092;11.574;2023-04-07T04:52:32;95340.22;;;3.65;100.00
27429;BME280;14881;48.092;11.574;2023-04-07T04:55:02;95335.66;;;3.65;100.00
27429;BME280;14881;48.092;11.574;2023-04-07T04:57:30;95341.59;;;3.67;100.00
27429;BME280;14881;48.092;11.574;2023-04-07T05:00:00;95340.50;;;3.63;100.00
27429;BME280;14881;48.092;11.574;2023-04-07T05:02:28;95342.63;;;3.61;100.00
27429;BME280;14881;48.092;11.574;2023-04-07T05:04:56;95338.88;;;3.62;100.00
27429;BME280;14881;48.092;11.574;2023-04-07T05:07:24;95334.56;;;3.61;100.00
27429;BME280;14881;48.092;11.574;2023-04-07T05:09:52;95337.53;;;3.65;100.00
27429;BME280;14881;48.092;11.574;2023-04-07T05:12:21;95341.03;;;3.65;100.00
27429;BME280;14881;48.092;11.574;2023-04-07T05:14:48;95337.00;;;3.63;100.00
27429;BME280;14881;48.092;11.574;2023-04-07T05:17:16;95334.31;;;3.63;100.00
27429;BME280;14881;48.092;11.574;2023-04-07T05:19:44;95345.06;;;3.63;100.00
27429;BME280;14881;48.092;11.574;2023-04-07T05:22:12;95336.44;;;3.61;100.00
27429;BME280;14881;48.092;11.574;2023-04-07T05:24:39;95336.69;;;3.59;100.00
27429;BME280;14881;48.092;11.574;2023-04-07T05:27:07;95328.63;;;3.59;100.00
27429;BME280;14881;48.092;11.574;2023-04-07T05:29:42;95327.81;;;3.59;100.00
27429;BME280;14881;48.092;11.574;2023-04-07T05:32:10;95336.94;;;3.58;100.00
27429;BME280;14881;48.092;11.574;2023-04-07T05:34:38;95338.81;;;3.57;100.00
27429;BME280;14881;48.092;11.574;2023-04-07T05:37:06;95341.81;;;3.61;100.00
27429;BME280;14881;48.092;11.574;2023-04-07T05:39:34;95339.59;;;3.58;100.00
27429;BME280;14881;48.092;11.574;2023-04-07T05:42:02;95346.84;;;3.57;100.00
27429;BME280;14881;48.092;11.574;2023-04-07T05:44:29;95342.06;;;3.59;100.00
27429;BME280;14881;48.092;11.574;2023-04-07T05:46:58;95336.03;;;3.74;100.00
27429;BME280;14881;48.092;11.574;2023-04-07T05:49:26;95335.91;;;3.85;100.00
27429;BME280;14881;48.092;11.574;2023-04-07T05:51:54;95334.50;;;4.05;100.00
27429;BME280;14881;48.092;11.574;2023-04-07T05:54:22;95333.50;;;4.11;100.00
27429;BME280;14881;48.092;11.574;2023-04-07T05:56:49;95329.03;;;4.22;100.00
27429;BME280;14881;48.092;11.574;2023-04-07T05:59:17;95323.47;;;4.33;100.00
27429;BME280;14881;48.092;11.574;2023-04-07T06:01:45;95328.09;;;4.38;100.00
27429;BME280;14881;48.092;11.574;2023-04-07T06:04:14;95322.34;;;4.56;100.00
27429;BME280;14881;48.092;11.574;2023-04-07T06:06:42;95319.47;;;4.63;100.00
27429;BME280;14881;48.092;11.574;2023-04-07T06:09:09;95318.66;;;4.62;100.00
27429;BME280;14881;48.092;11.574;2023-04-07T06:11:37;95324.22;;;4.55;100.00
27429;BME280;14881;48.092;11.574;2023-04-07T06:14:05;95311.59;;;4.56;100.00
27429;BME280;14881;48.092;11.574;2023-04-07T06:16:32;95308.09;;;4.55;100.00
27429;BME280;14881;48.092;11.574;2023-04-07T06:19:00;95310.31;;;4.64;100.00
27429;BME280;14881;48.092;11.574;2023-04-07T06:21:29;95300.69;;;4.73;100.00
27429;BME280;14881;48.092;11.574;2023-04-07T06:23:57;95307.19;;;4.77;100.00
27429;BME280;14881;48.092;11.574;2023-04-07T06:26:25;95306.69;;;4.80;100.00
27429;BME280;14881;48.092;11.574;2023-04-07T06:28:53;95301.03;;;4.81;100.00
27429;BME280;14881;48.092;11.574;2023-04-07T06:31:21;95290.88;;;4.94;100.00
27429;BME280;14881;48.092;11.574;2023-04-07T06:33:49;95284.50;;;5.05;100.00
27429;BME280;14881;48.092;11.574;2023-04-07T06:36:17;95296.91;;;5.11;100.00
27429;BME280;14881;48.092;11.574;2023-04-07T06:38:46;95292.13;;;5.23;100.00
27429;BME280;14881;48.092;11.574;2023-04-07T06:41:13;95291.06;;;5.24;100.00
27429;BME280;14881;48.092;11.574;2023-04-07T06:43:43;95292.69;;;5.25;100.00
27429;BME280;14881;48.092;11.574;2023-04-07T06:46:11;95280.91;;;5.36;100.00
27429;BME280;14881;48.092;11.574;2023-04-07T06:48:39;95280.66;;;5.43;100.00
27429;BME280;14881;48.092;11.574;2023-04-07T06:51:06;95280.91;;;5.41;100.00
27429;BME280;14881;48.092;11.574;2023-04-07T06:53:36;95279.63;;;5.49;100.00
27429;BME280;14881;48.092;11.574;2023-04-07T06:56:06;95279.09;;;5.52;100.00
27429;BME280;14881;48.092;11.574;2023-04-07T06:58:35;95279.91;;;5.57;100.00
27429;BME280;14881;48.092;11.574;2023-04-07T07:01:03;95276.44;;;5.72;100.00
27429;BME280;14881;48.092;11.574;2023-04-07T07:03:32;95276.28;;;5.94;100.00
27429;BME280;14881;48.092;11.574;2023-04-07T07:06:00;95274.41;;;6.00;100.00
27429;BME280;14881;48.092;11.574;2023-04-07T07:08:28;95272.84;;;6.34;100.00
27429;BME280;14881;48.092;11.574;2023-04-07T07:10:56;95270.69;;;6.51;100.00
27429;BME280;14881;48.092;11.574;2023-04-07T07:13:25;95270.44;;;6.73;100.00
27429;BME280;14881;48.092;11.574;2023-04-07T07:15:54;95273.91;;;6.94;100.00
27429;BME280;14881;48.092;11.574;2023-04-07T07:18:22;95279.31;;;7.04;100.00
27429;BME280;14881;48.092;11.574;2023-04-07T07:20:50;95276.53;;;7.29;100.00
27429;BME280;14881;48.092;11.574;2023-04-07T07:23:17;95263.53;;;7.42;100.00
27429;BME280;14881;48.092;11.574;2023-04-07T07:25:45;95272.63;;;7.66;100.00
27429;BME280;14881;48.092;11.574;2023-04-07T07:28:13;95282.91;;;7.64;100.00
27429;BME280;14881;48.092;11.574;2023-04-07T07:30:42;95278.47;;;7.93;100.00
27429;BME280;14881;48.092;11.574;2023-04-07T07:33:09;95276.75;;;7.53;100.00
27429;BME280;14881;48.092;11.574;2023-04-07T07:35:40;95282.31;;;7.77;100.00
27429;BME280;14881;48.092;11.574;2023-04-07T07:38:07;95276.47;;;7.55;100.00
27429;BME280;14881;48.092;11.574;2023-04-07T07:40:35;95283.16;;;7.67;100.00
27429;BME280;14881;48.092;11.574;2023-04-07T07:43:03;95278.28;;;7.69;100.00
27429;BME280;14881;48.092;11.574;2023-04-07T07:45:31;95281.66;;;7.36;100.00
27429;BME280;14881;48.092;11.574;2023-04-07T07:48:00;95283.31;;;7.27;100.00
27429;BME280;14881;48.092;11.574;2023-04-07T07:50:28;95278.72;;;7.22;100.00
27429;BME280;14881;48.092;11.574;2023-04-07T07:52:56;95277.34;;;7.30;100.00
27429;BME280;14881;48.092;11.574;2023-04-07T07:55:24;95275.72;;;7.29;100.00
27429;BME280;14881;48.092;11.574;2023-04-07T07:57:52;95279.72;;;7.52;100.00
27429;BME280;14881;48.092;11.574;2023-04-07T08:00:20;95272.97;;;7.49;100.00
27429;BME280;14881;48.092;11.574;2023-04-07T08:02:49;95275.09;;;7.57;100.00
27429;BME280;14881;48.092;11.574;2023-04-07T08:05:18;95271.38;;;7.43;100.00
27429;BME280;14881;48.092;11.574;2023-04-07T08:07:46;95268.88;;;7.57;100.00
27429;BME280;14881;48.092;11.574;2023-04-07T08:10:14;95273.75;;;7.55;100.00
27429;BME280;14881;48.092;11.574;2023-04-07T08:12:42;95274.22;;;7.77;100.00
27429;BME280;14881;48.092;11.574;2023-04-07T08:15:10;95272.81;;;7.90;100.00
27429;BME280;14881;48.092;11.574;2023-04-07T08:17:37;95277.84;;;8.07;100.00
27429;BME280;14881;48.092;11.574;2023-04-07T08:20:07;95259.09;;;8.20;100.00
27429;BME280;14881;48.092;11.574;2023-04-07T08:22:37;95264.94;;;8.43;100.00
27429;BME280;14881;48.092;11.574;2023-04-07T08:25:05;95262.09;;;8.58;100.00
27429;BME280;14881;48.092;11.574;2023-04-07T08:27:32;95263.81;;;8.83;100.00
27429;BME280;14881;48.092;11.574;2023-04-07T08:30:03;95259.38;;;8.92;100.00
27429;BME280;14881;48.092;11.574;2023-04-07T08:32:36;95261.22;;;9.25;100.00
27429;BME280;14881;48.092;11.574;2023-04-07T08:35:04;95258.00;;;9.47;100.00
27429;BME280;14881;48.092;11.574;2023-04-07T08:37:33;95253.50;;;9.37;100.00
27429;BME280;14881;48.092;11.574;2023-04-07T08:40:04;95254.47;;;9.70;100.00
27429;BME280;14881;48.092;11.574;2023-04-07T08:42:33;95255.63;;;10.07;100.00
27429;BME280;14881;48.092;11.574;2023-04-07T08:45:02;95252.31;;;10.10;100.00
27429;BME280;14881;48.092;11.574;2023-04-07T08:47:34;95243.19;;;10.25;100.00
27429;BME280;14881;48.092;11.574;2023-04-07T08:50:04;95248.38;;;10.40;100.00
27429;BME280;14881;48.092;11.574;2023-04-07T08:52:33;95255.94;;;10.43;100.00
27429;BME280;14881;48.092;11.574;2023-04-07T08:55:04;95244.16;;;10.34;100.00
27429;BME280;14881;48.092;11.574;2023-04-07T08:57:32;95253.09;;;10.34;100.00
27429;BME280;14881;48.092;11.574;2023-04-07T09:00:01;95247.44;;;10.50;100.00
27429;BME280;14881;48.092;11.574;2023-04-07T09:02:31;95245.72;;;10.72;100.00
27429;BME280;14881;48.092;11.574;2023-04-07T09:05:00;95245.28;;;10.98;100.00
27429;BME280;14881;48.092;11.574;2023-04-07T09:07:30;95240.38;;;11.13;100.00
27429;BME280;14881;48.092;11.574;2023-04-07T09:10:06;95237.03;;;10.89;100.00
27429;BME280;14881;48.092;11.574;2023-04-07T09:12:35;95241.94;;;10.87;100.00
27429;BME280;14881;48.092;11.574;2023-04-07T09:15:03;95244.56;;;10.92;100.00
27429;BME280;14881;48.092;11.574;2023-04-07T09:17:31;95240.78;;;11.07;100.00
27429;BME280;14881;48.092;11.574;2023-04-07T09:20:00;95235.97;;;11.18;100.00
27429;BME280;14881;48.092;11.574;2023-04-07T09:22:36;95232.38;;;11.49;100.00
27429;BME280;14881;48.092;11.574;2023-04-07T09:25:16;95231.84;;;11.61;100.00
27429;BME280;14881;48.092;11.574;2023-04-07T09:27:53;95229.25;;;11.70;100.00
27429;BME280;14881;48.092;11.574;2023-04-07T09:30:22;95230.75;;;11.48;100.00
27429;BME280;14881;48.092;11.574;2023-04-07T09:32:49;95224.72;;;11.24;100.00
27429;BME280;14881;48.092;11.574;2023-04-07T09:35:17;95221.19;;;11.24;100.00
27429;BME280;14881;48.092;11.574;2023-04-07T09:38:01;95235.25;;;10.79;100.00
27429;BME280;14881;48.092;11.574;2023-04-07T09:40:31;95217.16;;;11.48;100.00
27429;BME280;14881;48.092;11.574;2023-04-07T09:43:00;95216.63;;;12.01;100.00
27429;BME280;14881;48.092;11.574;2023-04-07T09:45:29;95221.16;;;12.06;100.00
27429;BME280;14881;48.092;11.574;2023-04-07T09:48:04;95215.69;;;12.19;100.00
27429;BME280;14881;48.092;11.574;2023-04-07T09:50:33;95208.72;;;12.27;100.00
27429;BME280;14881;48.092;11.574;2023-04-07T09:53:02;95202.31;;;12.32;100.00
27429;BME280;14881;48.092;11.574;2023-04-07T09:55:32;95211.28;;;12.10;100.00
27429;BME280;14881;48.092;11.574;2023-04-07T09:58:01;95207.56;;;12.42;100.00
27429;BME280;14881;48.092;11.574;2023-04-07T10:00:30;95207.66;;;12.81;97.32
27429;BME280;14881;48.092;11.574;2023-04-07T10:02:59;95198.06;;;13.37;90.52
27429;BME280;14881;48.092;11.574;2023-04-07T10:05:27;95212.16;;;13.08;85.80
27429;BME280;14881;48.092;11.574;2023-04-07T10:07:56;95199.50;;;12.59;90.94
27429;BME280;14881;48.092;11.574;2023-04-07T10:10:23;95211.13;;;12.51;93.19
27429;BME280;14881;48.092;11.574;2023-04-07T10:12:58;95208.97;;;12.39;92.98
27429;BME280;14881;48.092;11.574;2023-04-07T10:15:26;95203.13;;;11.96;90.69
27429;BME280;14881;48.092;11.574;2023-04-07T10:17:54;95205.13;;;12.04;89.25
27429;BME280;14881;48.092;11.574;2023-04-07T10:20:23;95208.91;;;12.75;88.78
27429;BME280;14881;48.092;11.574;2023-04-07T10:22:52;95199.03;;;13.41;83.04
27429;BME280;14881;48.092;11.574;2023-04-07T10:25:23;95191.75;;;13.68;82.04
27429;BME280;14881;48.092;11.574;2023-04-07T10:27:55;95198.25;;;13.98;84.02
27429;BME280;14881;48.092;11.574;2023-04-07T10:30:28;95193.38;;;13.77;81.46
27429;BME280;14881;48.092;11.574;2023-04-07T10:32:57;95196.47;;;13.84;80.76
27429;BME280;14881;48.092;11.574;2023-04-07T10:35:26;95196.50;;;13.45;78.27
27429;BME280;14881;48.092;11.574;2023-04-07T10:38:11;95192.28;;;13.08;83.44
27429;BME280;14881;48.092;11.574;2023-04-07T10:40:41;95194.50;;;13.06;83.03
27429;BME280;14881;48.092;11.574;2023-04-07T10:43:10;95194.13;;;13.21;84.18
27429;BME280;14881;48.092;11.574;2023-04-07T10:45:55;95191.59;;;13.24;84.18
27429;BME280;14881;48.092;11.574;2023-04-07T10:48:25;95192.59;;;13.37;82.93
27429;BME280;14881;48.092;11.574;2023-04-07T10:51:15;95196.31;;;13.41;80.65
27429;BME280;14881;48.092;11.574;2023-04-07T10:57:05;95195.00;;;13.08;84.53
27429;BME280;14881;48.092;11.574;2023-04-07T10:59:38;95194.44;;;13.19;84.96
27429;BME280;14881;48.092;11.574;2023-04-07T11:02:31;95189.25;;;13.40;78.98
27429;BME280;14881;48.092;11.574;2023-04-07T11:05:01;95183.16;;;14.00;78.87
27429;BME280;14881;48.092;11.574;2023-04-07T11:07:49;95182.22;;;14.56;74.56
27429;BME280;14881;48.092;11.574;2023-04-07T11:10:19;95187.66;;;14.22;76.63
27429;BME280;14881;48.092;11.574;2023-04-07T11:13:03;95183.00;;;14.05;77.51
27429;BME280;14881;48.092;11.574;2023-04-07T11:15:34;95183.28;;;13.86;77.73
27429;BME280;14881;48.092;11.574;2023-04-07T11:18:08;95190.03;;;13.32;79.95
27429;BME280;14881;48.092;11.574;2023-04-07T11:20:44;95188.06;;;13.02;83.32
27429;BME280;14881;48.092;11.574;2023-04-07T11:23:13;95185.78;;;12.95;83.25
27429;BME280;14881;48.092;11.574;2023-04-07T11:25:43;95188.34;;;12.92;85.31
27429;BME280;14881;48.092;11.574;2023-04-07T11:28:12;95188.94;;;13.11;81.30
27429;BME280;14881;48.092;11.574;2023-04-07T11:30:47;95186.31;;;12.75;80.75
27429;BME280;14881;48.092;11.574;2023-04-07T11:33:18;95188.56;;;13.04;78.63
27429;BME280;14881;48.092;11.574;2023-04-07T11:35:51;95183.81;;;12.87;78.40
27429;BME280;14881;48.092;11.574;2023-04-07T11:38:19;95184.97;;;12.95;80.35
27429;BME280;14881;48.092;11.574;2023-04-07T11:40:47;95178.94;;;12.75;77.65
27429;BME280;14881;48.092;11.574;2023-04-07T11:43:17;95180.78;;;13.19;79.23
27429;BME280;14881;48.092;11.574;2023-04-07T11:46:02;95178.06;;;13.50;78.24
27429;BME280;14881;48.092;11.574;2023-04-07T11:48:31;95174.75;;;13.88;76.67
27429;BME280;14881;48.092;11.574;2023-04-07T11:51:00;95176.94;;;14.69;76.54
27429;BME280;14881;48.092;11.574;2023-04-07T11:53:30;95157.78;;;15.24;70.37
27429;BME280;14881;48.092;11.574;2023-04-07T11:56:00;95157.66;;;15.67;71.53
27429;BME280;14881;48.092;11.574;2023-04-07T11:58:28;95156.59;;;15.42;68.94
27429;BME280;14881;48.092;11.574;2023-04-07T12:00:58;95157.06;;;15.44;64.99
27429;BME280;14881;48.092;11.574;2023-04-07T12:03:30;95160.50;;;14.86;66.35
27429;BME280;14881;48.092;11.574;2023-04-07T12:05:59;95161.31;;;14.86;72.35
27429;BME280;14881;48.092;11.574;2023-04-07T12:08:40;95162.34;;;15.11;71.58
27429;BME280;14881;48.092;11.574;2023-04-07T12:11:08;95150.22;;;15.29;71.40
27429;BME280;14881;48.092;11.574;2023-04-07T12:13:36;95146.53;;;15.25;70.65
27429;BME280;14881;48.092;11.574;2023-04-07T12:16:05;95156.06;;;15.11;68.86
27429;BME280;14881;48.092;11.574;2023-04-07T12:18:33;95163.22;;;14.86;69.87
27429;BME280;14881;48.092;11.574;2023-04-07T12:21:02;95159.97;;;14.92;68.75
27429;BME280;14881;48.092;11.574;2023-04-07T12:23:30;95151.88;;;15.22;74.18
27429;BME280;14881;48.092;11.574;2023-04-07T12:25:57;95149.91;;;15.69;71.10
27429;BME280;14881;48.092;11.574;2023-04-07T12:28:25;95149.78;;;15.19;66.51
27429;BME280;14881;48.092;11.574;2023-04-07T12:30:53;95154.34;;;14.97;69.77
27429;BME280;14881;48.092;11.574;2023-04-07T12:33:22;95159.81;;;15.06;65.85
27429;BME280;14881;48.092;11.574;2023-04-07T12:35:49;95158.44;;;14.66;67.59
27429;BME280;14881;48.092;11.574;2023-04-07T12:38:17;95170.00;;;14.37;72.72
27429;BME280;14881;48.092;11.574;2023-04-07T12:40:45;95162.47;;;14.68;72.95
27429;BME280;14881;48.092;11.574;2023-04-07T12:43:13;95164.88;;;14.35;69.40
27429;BME280;14881;48.092;11.574;2023-04-07T12:45:40;95163.28;;;14.43;72.77
27429;BME280;14881;48.092;11.574;2023-04-07T12:48:08;95165.47;;;14.23;71.36
27429;BME280;14881;48.092;11.574;2023-04-07T12:50:40;95166.91;;;13.95;67.48
27429;BME280;14881;48.092;11.574;2023-04-07T12:53:07;95161.69;;;13.59;70.81
27429;BME280;14881;48.092;11.574;2023-04-07T12:55:35;95160.31;;;13.79;71.54
27429;BME280;14881;48.092;11.574;2023-04-07T12:58:03;95165.44;;;13.80;73.50
27429;BME280;14881;48.092;11.574;2023-04-07T13:00:31;95162.91;;;13.84;75.81
27429;BME280;14881;48.092;11.574;2023-04-07T13:02:58;95160.81;;;13.98;77.81
27429;BME280;14881;48.092;11.574;2023-04-07T13:05:27;95160.97;;;13.84;78.37